sensor_id;sensor_type;location;lat;lon;timestamp;pressure;altitude;pressure_sealevel;temperature;humidity
65800;BME280;52544;48.116;11.660;2023-01-29T00:00:08;96514.88;;;-0.36;100.00
65800;BME280;52544;48.116;11.660;2023-01-29T00:02:35;96511.50;;;-0.38;100.00
65800;BME280;52544;48.116;11.660;2023-01-29T00:05:01;96513.72;;;-0.26;100.00
65800;BME280;52544;48.116;11.660;2023-01-29T00:07:26;96513.63;;;-0.22;100.00
65800;BME280;52544;48.116;11.660;2023-01-29T00:09:52;96513.72;;;-0.26;100.00
65800;BME280;52544;48.116;11.660;2023-01-29T00:12:17;96511.03;;;-0.22;100.00
65800;BME280;52544;48.116;11.660;2023-01-29T00:14:43;96518.91;;;-0.26;100.00
65800;BME280;52544;48.116;11.660;2023-01-29T00:17:08;96504.22;;;-0.27;100.00
65800;BME280;52544;48.116;11.660;2023-01-29T00:19:34;96505.06;;;-0.26;100.00
65800;BME280;52544;48.116;11.660;2023-01-29T00:22:00;96513.63;;;-0.22;100.00
65800;BME280;52544;48.116;11.660;2023-01-29T00:24:25;96514.94;;;-0.37;100.00
65800;BME280;52544;48.116;11.660;2023-01-29T00:26:51;96519.25;;;-0.36;100.00
65800;BME280;52544;48.116;11.660;2023-01-29T00:29:16;96513.97;;;-0.35;100.00
65800;BME280;52544;48.116;11.660;2023-01-29T00:31:43;96520.03;;;-0.34;100.00
65800;BME280;52544;48.116;11.660;2023-01-29T00:34:09;96526.19;;;-0.37;100.00
65800;BME280;52544;48.116;11.660;2023-01-29T00:36:35;96522.75;;;-0.39;100.00
65800;BME280;52544;48.116;11.660;2023-01-29T00:39:01;96528.06;;;-0.42;100.00
65800;BME280;52544;48.116;11.660;2023-01-29T00:41:34;96537.69;;;-0.45;100.00
65800;BME280;52544;48.116;11.660;2023-01-29T00:44:19;96538.56;;;-0.45;100.00
65800;BME280;52544;48.116;11.660;2023-01-29T00:47:03;96529.00;;;-0.44;100.00
65800;BME280;52544;48.116;11.660;2023-01-29T00:49:28;96529.03;;;-0.46;100.00
65800;BME280;52544;48.116;11.660;2023-01-29T00:51:56;96522.94;;;-0.45;100.00
65800;BME280;52544;48.116;11.660;2023-01-29T00:54:40;96529.84;;;-0.44;100.00
65800;BME280;52544;48.116;11.660;2023-01-29T00:57:05;96529.03;;;-0.46;100.00
65800;BME280;52544;48.116;11.660;2023-01-29T00:59:31;96531.53;;;-0.43;100.00
65800;BME280;52544;48.116;11.660;2023-01-29T01:01:56;96526.34;;;-0.43;100.00
65800;BME280;52544;48.116;11.660;2023-01-29T01:04:40;96528.06;;;-0.42;100.00
65800;BME280;52544;48.116;11.660;2023-01-29T01:07:05;96530.91;;;-0.51;100.00
65800;BME280;52544;48.116;11.660;2023-01-29T01:09:31;96525.69;;;-0.51;100.00
65800;BME280;52544;48.116;11.660;2023-01-29T01:12:17;96526.59;;;-0.52;100.00
65800;BME280;52544;48.116;11.660;2023-01-29T01:14:42;96522.09;;;-0.45;100.00
65800;BME280;52544;48.116;11.660;2023-01-29T01:17:08;96523.84;;;-0.46;100.00
65800;BME280;52544;48.116;11.660;2023-01-29T01:19:34;96523.91;;;-0.49;100.00
65800;BME280;52544;48.116;11.660;2023-01-29T01:22:00;96536.78;;;-0.44;100.00
65800;BME280;52544;48.116;11.660;2023-01-29T01:24:25;96539.41;;;-0.44;100.00
65800;BME280;52544;48.116;11.660;2023-01-29T01:26:51;96535.03;;;-0.44;100.00
65800;BME280;52544;48.116;11.660;2023-01-29T01:29:16;96530.81;;;-0.48;100.00
65800;BME280;52544;48.116;11.660;2023-01-29T01:31:42;96536.84;;;-0.46;100.00
65800;BME280;52544;48.116;11.660;2023-01-29T01:34:07;96533.41;;;-0.48;100.00
65800;BME280;52544;48.116;11.660;2023-01-29T01:36:32;96534.31;;;-0.49;100.00
65800;BME280;52544;48.116;11.660;2023-01-29T01:38:58;96538.63;;;-0.48;100.00
65800;BME280;52544;48.116;11.660;2023-01-29T01:41:23;96541.28;;;-0.51;100.00
65800;BME280;52544;48.116;11.660;2023-01-29T01:43:55;96531.78;;;-0.52;100.00
65800;BME280;52544;48.116;11.660;2023-01-29T01:46:22;96538.69;;;-0.49;100.00
65800;BME280;52544;48.116;11.660;2023-01-29T01:48:56;96535.22;;;-0.50;100.00
65800;BME280;52544;48.116;11.660;2023-01-29T01:51:23;96537.81;;;-0.50;100.00
65800;BME280;52544;48.116;11.660;2023-01-29T01:54:02;96530.16;;;-0.56;100.00
65800;BME280;52544;48.116;11.660;2023-01-29T01:56:32;96533.50;;;-0.51;100.00
65800;BME280;52544;48.116;11.660;2023-01-29T01:59:04;96540.38;;;-0.48;100.00
65800;BME280;52544;48.116;11.660;2023-01-29T02:01:31;96536.03;;;-0.48;100.00
65800;BME280;52544;48.116;11.660;2023-01-29T02:04:26;96527.41;;;-0.50;100.00
65800;BME280;52544;48.116;11.660;2023-01-29T02:07:13;96529.44;;;-0.61;100.00
65800;BME280;52544;48.116;11.660;2023-01-29T02:10:08;96534.53;;;-0.57;100.00
65800;BME280;52544;48.116;11.660;2023-01-29T02:12:36;96536.22;;;-0.56;100.00
65800;BME280;52544;48.116;11.660;2023-01-29T02:15:04;96538.88;;;-0.57;100.00
65800;BME280;52544;48.116;11.660;2023-01-29T02:17:30;96543.16;;;-0.55;100.00
65800;BME280;52544;48.116;11.660;2023-01-29T02:20:13;96541.47;;;-0.57;100.00
65800;BME280;52544;48.116;11.660;2023-01-29T02:28:37;96544.84;;;-0.54;100.00
65800;BME280;52544;48.116;11.660;2023-01-29T02:31:16;96550.91;;;-0.53;100.00
65800;BME280;52544;48.116;11.660;2023-01-29T02:34:12;96541.41;;;-0.54;100.00
65800;BME280;52544;48.116;11.660;2023-01-29T02:36:50;96543.94;;;-0.53;100.00
65800;BME280;52544;48.116;11.660;2023-01-29T02:39:26;96544.00;;;-0.54;100.00
65800;BME280;52544;48.116;11.660;2023-01-29T02:42:08;96532.81;;;-0.58;100.00
65800;BME280;52544;48.116;11.660;2023-01-29T02:44:51;96534.41;;;-0.52;100.00
65800;BME280;52544;48.116;11.660;2023-01-29T02:53:20;96514.41;;;-0.50;100.00
65800;BME280;52544;48.116;11.660;2023-01-29T02:56:00;96521.38;;;-0.52;100.00
65800;BME280;52544;48.116;11.660;2023-01-29T02:58:45;96512.69;;;-0.51;100.00
65800;BME280;52544;48.116;11.660;2023-01-29T03:03:52;96514.63;;;-0.58;100.00
65800;BME280;52544;48.116;11.660;2023-01-29T03:06:26;96519.75;;;-0.55;100.00
65800;BME280;52544;48.116;11.660;2023-01-29T03:08:58;96515.25;;;-0.49;100.00
65800;BME280;52544;48.116;11.660;2023-01-29T03:11:41;96518.91;;;-0.57;100.00
65800;BME280;52544;48.116;11.660;2023-01-29T03:14:13;96518.91;;;-0.55;100.00
65800;BME280;52544;48.116;11.660;2023-01-29T03:16:47;96520.63;;;-0.56;100.00
65800;BME280;52544;48.116;11.660;2023-01-29T03:19:27;96514.53;;;-0.55;100.00
65800;BME280;52544;48.116;11.660;2023-01-29T03:21:57;96519.75;;;-0.56;100.00
65800;BME280;52544;48.116;11.660;2023-01-29T03:24:53;96516.44;;;-0.61;100.00
65800;BME280;52544;48.116;11.660;2023-01-29T03:27:57;96525.06;;;-0.59;100.00
65800;BME280;52544;48.116;11.660;2023-01-29T03:31:04;96529.31;;;-0.57;100.00
65800;BME280;52544;48.116;11.660;2023-01-29T03:36:53;96531.97;;;-0.58;100.00
65800;BME280;52544;48.116;11.660;2023-01-29T03:39:23;96531.19;;;-0.62;100.00
65800;BME280;52544;48.116;11.660;2023-01-29T03:42:12;96526.78;;;-0.58;100.00
65800;BME280;52544;48.116;11.660;2023-01-29T03:45:26;96537.16;;;-0.58;100.00
65800;BME280;52544;48.116;11.660;2023-01-29T03:50:42;96521.66;;;-0.61;100.00
65800;BME280;52544;48.116;11.660;2023-01-29T03:54:27;96517.28;;;-0.59;100.00
65800;BME280;52544;48.116;11.660;2023-01-29T03:59:24;96516.50;;;-0.63;100.00
65800;BME280;52544;48.116;11.660;2023-01-29T04:01:59;96502.66;;;-0.63;100.00
65800;BME280;52544;48.116;11.660;2023-01-29T04:04:29;96499.16;;;-0.62;100.00
65800;BME280;52544;48.116;11.660;2023-01-29T04:07:01;96493.94;;;-0.62;100.00
65800;BME280;52544;48.116;11.660;2023-01-29T04:09:37;96493.03;;;-0.61;100.00
65800;BME280;52544;48.116;11.660;2023-01-29T04:12:08;96486.22;;;-0.65;100.00
65800;BME280;52544;48.116;11.660;2023-01-29T04:14:35;96483.69;;;-0.68;100.00
65800;BME280;52544;48.116;11.660;2023-01-29T04:17:08;96480.44;;;-0.77;100.00
65800;BME280;52544;48.116;11.660;2023-01-29T04:19:35;96485.69;;;-0.78;100.00
65800;BME280;52544;48.116;11.660;2023-01-29T04:22:27;96492.59;;;-0.77;100.00
65800;BME280;52544;48.116;11.660;2023-01-29T04:24:50;96487.44;;;-0.79;100.00
65800;BME280;52544;48.116;11.660;2023-01-29T04:30:22;96494.28;;;-0.74;100.00
65800;BME280;52544;48.116;11.660;2023-01-29T04:38:09;96493.22;;;-0.67;100.00
65800;BME280;52544;48.116;11.660;2023-01-29T04:43:26;96491.47;;;-0.67;100.00
65800;BME280;52544;48.116;11.660;2023-01-29T04:48:37;96496.66;;;-0.67;100.00
65800;BME280;52544;48.116;11.660;2023-01-29T04:53:53;96502.72;;;-0.66;100.00
65800;BME280;52544;48.116;11.660;2023-01-29T04:56:39;96500.19;;;-0.69;100.00
65800;BME280;52544;48.116;11.660;2023-01-29T04:59:13;96493.25;;;-0.69;100.00
65800;BME280;52544;48.116;11.660;2023-01-29T05:01:42;96495.81;;;-0.67;100.00
65800;BME280;52544;48.116;11.660;2023-01-29T05:04:11;96489.78;;;-0.68;100.00
65800;BME280;52544;48.116;11.660;2023-01-29T05:06:38;96489.66;;;-0.65;100.00
65800;BME280;52544;48.116;11.660;2023-01-29T05:09:04;96493.16;;;-0.66;100.00
65800;BME280;52544;48.116;11.660;2023-01-29T05:11:31;96499.16;;;-0.64;100.00
65800;BME280;52544;48.116;11.660;2023-01-29T05:14:01;96504.34;;;-0.62;100.00
65800;BME280;52544;48.116;11.660;2023-01-29T05:16:32;96504.34;;;-0.62;100.00
65800;BME280;52544;48.116;11.660;2023-01-29T05:19:10;96508.59;;;-0.60;100.00
65800;BME280;52544;48.116;11.660;2023-01-29T05:21:38;96510.22;;;-0.56;100.00
65800;BME280;52544;48.116;11.660;2023-01-29T05:24:16;96511.16;;;-0.58;100.00
65800;BME280;52544;48.116;11.660;2023-01-29T05:26:43;96514.53;;;-0.55;100.00
65800;BME280;52544;48.116;11.660;2023-01-29T05:29:28;96518.06;;;-0.57;100.00
65800;BME280;52544;48.116;11.660;2023-01-29T05:31:53;96521.50;;;-0.55;100.00
65800;BME280;52544;48.116;11.660;2023-01-29T05:34:19;96525.78;;;-0.54;100.00
65800;BME280;52544;48.116;11.660;2023-01-29T05:36:44;96531.97;;;-0.58;100.00
65800;BME280;52544;48.116;11.660;2023-01-29T05:39:09;96526.72;;;-0.57;100.00
65800;BME280;52544;48.116;11.660;2023-01-29T05:41:35;96530.28;;;-0.59;100.00
65800;BME280;52544;48.116;11.660;2023-01-29T05:44:00;96535.47;;;-0.59;100.00
65800;BME280;52544;48.116;11.660;2023-01-29T05:46:25;96544.97;;;-0.58;100.00
65800;BME280;52544;48.116;11.660;2023-01-29T05:48:51;96548.50;;;-0.61;100.00
65800;BME280;52544;48.116;11.660;2023-01-29T05:51:17;96544.06;;;-0.57;100.00
65800;BME280;52544;48.116;11.660;2023-01-29T05:53:42;96541.53;;;-0.59;100.00
65800;BME280;52544;48.116;11.660;2023-01-29T05:56:08;96546.66;;;-0.57;100.00
65800;BME280;52544;48.116;11.660;2023-01-29T05:58:34;96547.53;;;-0.57;100.00
65800;BME280;52544;48.116;11.660;2023-01-29T06:01:20;96538.94;;;-0.60;100.00
65800;BME280;52544;48.116;11.660;2023-01-29T06:03:47;96532.94;;;-0.62;100.00
65800;BME280;52544;48.116;11.660;2023-01-29T06:06:12;96528.66;;;-0.65;100.00
65800;BME280;52544;48.116;11.660;2023-01-29T06:08:38;96539.03;;;-0.63;100.00
65800;BME280;52544;48.116;11.660;2023-01-29T06:11:07;96534.78;;;-0.66;100.00
65800;BME280;52544;48.116;11.660;2023-01-29T06:13:33;96536.47;;;-0.65;100.00
65800;BME280;52544;48.116;11.660;2023-01-29T06:15:58;96536.53;;;-0.66;100.00
65800;BME280;52544;48.116;11.660;2023-01-29T06:18:24;96523.59;;;-0.69;100.00
65800;BME280;52544;48.116;11.660;2023-01-29T06:20:49;96520.19;;;-0.71;100.00
65800;BME280;52544;48.116;11.660;2023-01-29T06:23:14;96525.41;;;-0.73;100.00
65800;BME280;52544;48.116;11.660;2023-01-29T06:25:40;96529.75;;;-0.73;100.00
65800;BME280;52544;48.116;11.660;2023-01-29T06:28:05;96541.00;;;-0.71;100.00
65800;BME280;52544;48.116;11.660;2023-01-29T06:30:31;96541.84;;;-0.71;100.00
65800;BME280;52544;48.116;11.660;2023-01-29T06:32:57;96547.00;;;-0.69;100.00
65800;BME280;52544;48.116;11.660;2023-01-29T06:35:26;96538.34;;;-0.70;100.00
65800;BME280;52544;48.116;11.660;2023-01-29T06:37:52;96546.00;;;-0.65;100.00
65800;BME280;52544;48.116;11.660;2023-01-29T06:40:17;96542.63;;;-0.67;100.00
65800;BME280;52544;48.116;11.660;2023-01-29T06:42:43;96544.31;;;-0.66;100.00
65800;BME280;52544;48.116;11.660;2023-01-29T06:45:09;96544.25;;;-0.63;100.00
65800;BME280;52544;48.116;11.660;2023-01-29T06:47:34;96546.00;;;-0.65;100.00
65800;BME280;52544;48.116;11.660;2023-01-29T06:50:01;96547.69;;;-0.63;100.00
65800;BME280;52544;48.116;11.660;2023-01-29T06:52:26;96554.66;;;-0.63;100.00
65800;BME280;52544;48.116;11.660;2023-01-29T06:54:54;96553.75;;;-0.64;100.00
65800;BME280;52544;48.116;11.660;2023-01-29T06:57:19;96551.16;;;-0.62;100.00
65800;BME280;52544;48.116;11.660;2023-01-29T06:59:44;96549.44;;;-0.63;100.00
65800;BME280;52544;48.116;11.660;2023-01-29T07:02:10;96546.97;;;-0.68;100.00
65800;BME280;52544;48.116;11.660;2023-01-29T07:04:35;96534.72;;;-0.64;100.00
65800;BME280;52544;48.116;11.660;2023-01-29T07:07:02;96538.28;;;-0.68;100.00
65800;BME280;52544;48.116;11.660;2023-01-29T07:09:27;96521.88;;;-0.70;100.00
65800;BME280;52544;48.116;11.660;2023-01-29T07:11:53;96541.00;;;-0.73;100.00
65800;BME280;52544;48.116;11.660;2023-01-29T07:14:18;96550.63;;;-0.77;100.00
65800;BME280;52544;48.116;11.660;2023-01-29T07:16:43;96542.81;;;-0.77;100.00
65800;BME280;52544;48.116;11.660;2023-01-29T07:19:09;96543.66;;;-0.74;100.00
65800;BME280;52544;48.116;11.660;2023-01-29T07:21:34;96534.06;;;-0.72;100.00
65800;BME280;52544;48.116;11.660;2023-01-29T07:23:59;96528.97;;;-0.76;100.00
65800;BME280;52544;48.116;11.660;2023-01-29T07:26:25;96521.13;;;-0.74;100.00
65800;BME280;52544;48.116;11.660;2023-01-29T07:28:51;96528.13;;;-0.76;100.00
65800;BME280;52544;48.116;11.660;2023-01-29T07:31:16;96522.13;;;-0.80;100.00
65800;BME280;52544;48.116;11.660;2023-01-29T07:33:42;96527.22;;;-0.77;100.00
65800;BME280;52544;48.116;11.660;2023-01-29T07:36:09;96526.50;;;-0.82;100.00
65800;BME280;52544;48.116;11.660;2023-01-29T07:38:35;96525.63;;;-0.81;97.41
65800;BME280;52544;48.116;11.660;2023-01-29T07:41:01;96518.72;;;-0.82;95.16
65800;BME280;52544;48.116;11.660;2023-01-29T07:43:26;96520.53;;;-0.85;94.39
65800;BME280;52544;48.116;11.660;2023-01-29T07:45:51;96523.97;;;-0.83;94.25
65800;BME280;52544;48.116;11.660;2023-01-29T07:48:17;96522.13;;;-0.80;93.69
65800;BME280;52544;48.116;11.660;2023-01-29T07:50:43;96515.06;;;-0.74;93.16
65800;BME280;52544;48.116;11.660;2023-01-29T07:53:15;96510.59;;;-0.69;93.48
65800;BME280;52544;48.116;11.660;2023-01-29T07:55:43;96502.66;;;-0.63;92.69
65800;BME280;52544;48.116;11.660;2023-01-29T07:58:09;96501.69;;;-0.61;92.21
65800;BME280;52544;48.116;11.660;2023-01-29T08:00:35;96511.16;;;-0.58;93.57
65800;BME280;52544;48.116;11.660;2023-01-29T08:03:05;96512.78;;;-0.54;94.92
65800;BME280;52544;48.116;11.660;2023-01-29T08:05:31;96512.78;;;-0.54;95.51
65800;BME280;52544;48.116;11.660;2023-01-29T08:07:57;96509.38;;;-0.56;93.62
65800;BME280;52544;48.116;11.660;2023-01-29T08:10:22;96502.41;;;-0.54;94.33
65800;BME280;52544;48.116;11.660;2023-01-29T08:12:54;96505.72;;;-0.49;95.32
65800;BME280;52544;48.116;11.660;2023-01-29T08:15:19;96505.78;;;-0.52;93.70
65800;BME280;52544;48.116;11.660;2023-01-29T08:17:44;96507.50;;;-0.51;90.67
65800;BME280;52544;48.116;11.660;2023-01-29T08:20:10;96514.38;;;-0.48;90.48
65800;BME280;52544;48.116;11.660;2023-01-29T08:22:36;96512.53;;;-0.45;90.47
65800;BME280;52544;48.116;11.660;2023-01-29T08:25:01;96504.81;;;-0.48;90.61
65800;BME280;52544;48.116;11.660;2023-01-29T08:27:26;96507.34;;;-0.45;90.53
65800;BME280;52544;48.116;11.660;2023-01-29T08:29:52;96512.47;;;-0.42;89.46
65800;BME280;52544;48.116;11.660;2023-01-29T08:32:17;96509.75;;;-0.39;89.09
65800;BME280;52544;48.116;11.660;2023-01-29T08:34:42;96510.50;;;-0.34;89.85
65800;BME280;52544;48.116;11.660;2023-01-29T08:37:08;96519.06;;;-0.30;91.22
65800;BME280;52544;48.116;11.660;2023-01-29T08:39:33;96525.03;;;-0.27;90.76
65800;BME280;52544;48.116;11.660;2023-01-29T08:41:58;96526.00;;;-0.31;89.49
65800;BME280;52544;48.116;11.660;2023-01-29T08:44:24;96533.03;;;-0.33;89.16
65800;BME280;52544;48.116;11.660;2023-01-29T08:46:49;96539.13;;;-0.35;90.99
65800;BME280;52544;48.116;11.660;2023-01-29T08:49:15;96545.13;;;-0.32;90.19
65800;BME280;52544;48.116;11.660;2023-01-29T08:51:40;96543.25;;;-0.27;89.53
65800;BME280;52544;48.116;11.660;2023-01-29T08:54:05;96550.13;;;-0.26;89.45
65800;BME280;52544;48.116;11.660;2023-01-29T08:56:31;96547.47;;;-0.22;90.21
65800;BME280;52544;48.116;11.660;2023-01-29T08:58:56;96549.22;;;-0.23;90.54
65800;BME280;52544;48.116;11.660;2023-01-29T09:01:22;96545.63;;;-0.19;91.19
65800;BME280;52544;48.116;11.660;2023-01-29T09:03:47;96544.00;;;-0.23;91.19
65800;BME280;52544;48.116;11.660;2023-01-29T09:06:14;96556.81;;;-0.15;91.45
65800;BME280;52544;48.116;11.660;2023-01-29T09:08:40;96554.09;;;-0.11;91.59
65800;BME280;52544;48.116;11.660;2023-01-29T09:11:06;96560.97;;;-0.08;91.08
65800;BME280;52544;48.116;11.660;2023-01-29T09:13:31;96565.25;;;-0.07;90.30
65800;BME280;52544;48.116;11.660;2023-01-29T09:15:58;96565.19;;;-0.04;90.40
65800;BME280;52544;48.116;11.660;2023-01-29T09:18:24;96573.03;;;-0.06;89.07
65800;BME280;52544;48.116;11.660;2023-01-29T09:20:49;96574.63;;;-0.02;88.54
65800;BME280;52544;48.116;11.660;2023-01-29T09:23:15;96570.22;;;0.02;89.45
65800;BME280;52544;48.116;11.660;2023-01-29T09:25:41;96577.13;;;0.03;88.83
65800;BME280;52544;48.116;11.660;2023-01-29T09:28:07;96578.22;;;-0.06;86.27
65800;BME280;52544;48.116;11.660;2023-01-29T09:30:32;96585.38;;;-0.14;86.43
65800;BME280;52544;48.116;11.660;2023-01-29T09:33:01;96588.31;;;-0.26;87.15
65800;BME280;52544;48.116;11.660;2023-01-29T09:35:27;96594.34;;;-0.24;88.48
65800;BME280;52544;48.116;11.660;2023-01-29T09:37:53;96580.50;;;-0.26;87.27
65800;BME280;52544;48.116;11.660;2023-01-29T09:43:15;96595.66;;;-0.08;87.76
65800;BME280;52544;48.116;11.660;2023-01-29T09:45:51;96586.00;;;-0.04;88.41
65800;BME280;52544;48.116;11.660;2023-01-29T09:48:19;96603.00;;;0.08;89.48
65800;BME280;52544;48.116;11.660;2023-01-29T09:50:50;96601.38;;;0.05;87.72
65800;BME280;52544;48.116;11.660;2023-01-29T09:55:53;96608.44;;;0.00;88.41
65800;BME280;52544;48.116;11.660;2023-01-29T09:58:34;96596.50;;;-0.07;90.44
65800;BME280;52544;48.116;11.660;2023-01-29T10:01:19;96608.19;;;0.09;88.36
65800;BME280;52544;48.116;11.660;2023-01-29T10:03:59;96595.19;;;0.08;89.08
65800;BME280;52544;48.116;11.660;2023-01-29T10:14:47;96587.38;;;0.09;92.42
65800;BME280;52544;48.116;11.660;2023-01-29T10:25:20;96571.56;;;0.15;89.94
65800;BME280;52544;48.116;11.660;2023-01-29T10:27:57;96575.00;;;0.17;90.78
65800;BME280;52544;48.116;11.660;2023-01-29T10:30:37;96573.88;;;0.26;91.14
65800;BME280;52544;48.116;11.660;2023-01-29T10:33:05;96576.50;;;0.24;88.81
65800;BME280;52544;48.116;11.660;2023-01-29T10:35:33;96579.88;;;0.28;88.06
65800;BME280;52544;48.116;11.660;2023-01-29T10:43:33;96578.13;;;0.29;91.23
65800;BME280;52544;48.116;11.660;2023-01-29T10:46:36;96573.88;;;0.26;90.51
65800;BME280;52544;48.116;11.660;2023-01-29T10:49:27;96573.75;;;0.29;91.23
65800;BME280;52544;48.116;11.660;2023-01-29T10:52:07;96572.00;;;0.30;90.53
65800;BME280;52544;48.116;11.660;2023-01-29T11:02:44;96572.91;;;0.29;88.16
65800;BME280;52544;48.116;11.660;2023-01-29T11:05:19;96560.84;;;0.26;88.60
65800;BME280;52544;48.116;11.660;2023-01-29T11:07:48;96564.25;;;0.28;86.75
65800;BME280;52544;48.116;11.660;2023-01-29T11:10:18;96566.09;;;0.24;86.45
65800;BME280;52544;48.116;11.660;2023-01-29T11:12:46;96551.44;;;0.20;86.49
65800;BME280;52544;48.116;11.660;2023-01-29T11:15:25;96562.00;;;0.16;86.94
65800;BME280;52544;48.116;11.660;2023-01-29T11:18:06;96554.06;;;0.20;87.41
65800;BME280;52544;48.116;11.660;2023-01-29T11:20:35;96557.56;;;0.19;88.35
65800;BME280;52544;48.116;11.660;2023-01-29T11:23:01;96550.47;;;0.24;89.23
65800;BME280;52544;48.116;11.660;2023-01-29T11:25:27;96548.56;;;0.30;89.57
65800;BME280;52544;48.116;11.660;2023-01-29T11:27:59;96546.97;;;0.26;89.06
65800;BME280;52544;48.116;11.660;2023-01-29T11:30:44;96543.34;;;0.31;89.04
65800;BME280;52544;48.116;11.660;2023-01-29T11:33:21;96541.50;;;0.35;88.77
65800;BME280;52544;48.116;11.660;2023-01-29T11:35:50;96537.06;;;0.38;89.58
65800;BME280;52544;48.116;11.660;2023-01-29T11:38:25;96538.69;;;0.41;89.58
65800;BME280;52544;48.116;11.660;2023-01-29T11:40:52;96536.03;;;0.42;88.07
65800;BME280;52544;48.116;11.660;2023-01-29T11:43:27;96541.22;;;0.44;86.98
65800;BME280;52544;48.116;11.660;2023-01-29T11:46:02;96536.78;;;0.46;87.59
65800;BME280;52544;48.116;11.660;2023-01-29T11:51:07;96525.50;;;0.47;88.08
65800;BME280;52544;48.116;11.660;2023-01-29T11:53:44;96511.72;;;0.43;88.00
65800;BME280;52544;48.116;11.660;2023-01-29T11:56:31;96492.78;;;0.38;87.92
65800;BME280;52544;48.116;11.660;2023-01-29T11:58:58;96487.56;;;0.38;86.73
65800;BME280;52544;48.116;11.660;2023-01-29T12:01:31;96470.38;;;0.33;86.18
65800;BME280;52544;48.116;11.660;2023-01-29T12:03:58;96451.53;;;0.24;86.51
65800;BME280;52544;48.116;11.660;2023-01-29T12:06:32;96452.38;;;0.25;87.14
65800;BME280;52544;48.116;11.660;2023-01-29T12:09:00;96442.63;;;0.32;87.94
65800;BME280;52544;48.116;11.660;2023-01-29T12:11:31;96442.47;;;0.36;86.73
65800;BME280;52544;48.116;11.660;2023-01-29T12:14:02;96436.44;;;0.36;87.00
65800;BME280;52544;48.116;11.660;2023-01-29T12:21:45;96454.09;;;0.26;85.71
65800;BME280;52544;48.116;11.660;2023-01-29T12:24:32;96440.50;;;0.16;86.02
65800;BME280;52544;48.116;11.660;2023-01-29T12:27:06;96450.72;;;0.22;86.61
65800;BME280;52544;48.116;11.660;2023-01-29T12:29:55;96447.44;;;0.17;85.13
65800;BME280;52544;48.116;11.660;2023-01-29T12:32:43;96448.22;;;0.19;86.04
65800;BME280;52544;48.116;11.660;2023-01-29T12:35:19;96463.66;;;0.26;86.70
65800;BME280;52544;48.116;11.660;2023-01-29T12:37:57;96473.81;;;0.33;87.13
65800;BME280;52544;48.116;11.660;2023-01-29T12:40:28;96467.28;;;0.48;86.02
65800;BME280;52544;48.116;11.660;2023-01-29T12:43:00;96463.03;;;0.45;85.88
65800;BME280;52544;48.116;11.660;2023-01-29T12:45:29;96450.22;;;0.39;85.45
65800;BME280;52544;48.116;11.660;2023-01-29T12:48:01;96444.31;;;0.33;84.12
65800;BME280;52544;48.116;11.660;2023-01-29T12:50:31;96439.19;;;0.30;84.15
65800;BME280;52544;48.116;11.660;2023-01-29T12:52:58;96433.28;;;0.26;86.77
65800;BME280;52544;48.116;11.660;2023-01-29T12:55:29;96433.06;;;0.32;85.54
65800;BME280;52544;48.116;11.660;2023-01-29T12:57:59;96430.94;;;0.17;86.44
65800;BME280;52544;48.116;11.660;2023-01-29T13:00:28;96434.06;;;0.28;86.32
65800;BME280;52544;48.116;11.660;2023-01-29T13:03:04;96421.59;;;0.38;85.07
65800;BME280;52544;48.116;11.660;2023-01-29T13:05:42;96409.38;;;0.40;85.06
65800;BME280;52544;48.116;11.660;2023-01-29T13:08:15;96410.28;;;0.39;84.03
65800;BME280;52544;48.116;11.660;2023-01-29T13:10:48;96407.69;;;0.39;83.96
65800;BME280;52544;48.116;11.660;2023-01-29T13:13:26;96399.38;;;0.28;84.05
65800;BME280;52544;48.116;11.660;2023-01-29T13:15:55;96396.59;;;0.32;84.92
65800;BME280;52544;48.116;11.660;2023-01-29T13:20:56;96381.81;;;0.34;85.54
65800;BME280;52544;48.116;11.660;2023-01-29T13:23:31;96375.13;;;0.26;84.31
65800;BME280;52544;48.116;11.660;2023-01-29T13:25:58;96376.09;;;0.23;84.27
65800;BME280;52544;48.116;11.660;2023-01-29T13:28:25;96378.44;;;0.31;85.02
65800;BME280;52544;48.116;11.660;2023-01-29T13:34:14;96366.22;;;0.33;84.52
65800;BME280;52544;48.116;11.660;2023-01-29T13:36:45;96368.88;;;0.31;84.96
65800;BME280;52544;48.116;11.660;2023-01-29T13:39:19;96366.22;;;0.33;85.69
65800;BME280;52544;48.116;11.660;2023-01-29T13:41:46;96366.22;;;0.33;85.83
65800;BME280;52544;48.116;11.660;2023-01-29T13:44:21;96361.75;;;0.36;86.55
65800;BME280;52544;48.116;11.660;2023-01-29T13:47:01;96359.22;;;0.35;86.27
65800;BME280;52544;48.116;11.660;2023-01-29T13:52:13;96359.91;;;0.40;85.25
65800;BME280;52544;48.116;11.660;2023-01-29T13:54:52;96350.19;;;0.45;85.59
65800;BME280;52544;48.116;11.660;2023-01-29T14:10:29;96340.25;;;0.30;88.34
65800;BME280;52544;48.116;11.660;2023-01-29T14:15:36;96336.03;;;0.27;87.33
65800;BME280;52544;48.116;11.660;2023-01-29T14:18:19;96333.50;;;0.26;89.35
65800;BME280;52544;48.116;11.660;2023-01-29T14:20:55;96339.38;;;0.31;89.65
65800;BME280;52544;48.116;11.660;2023-01-29T14:31:59;96340.38;;;0.27;87.73
65800;BME280;52544;48.116;11.660;2023-01-29T14:37:02;96351.72;;;0.26;88.97
65800;BME280;52544;48.116;11.660;2023-01-29T14:39:44;96358.63;;;0.27;89.46
65800;BME280;52544;48.116;11.660;2023-01-29T14:42:26;96363.13;;;0.21;90.16
65800;BME280;52544;48.116;11.660;2023-01-29T14:53:26;96368.34;;;0.21;89.83
65800;BME280;52544;48.116;11.660;2023-01-29T14:55:58;96366.50;;;0.23;89.82
65800;BME280;52544;48.116;11.660;2023-01-29T14:58:42;96360.38;;;0.26;90.16
65800;BME280;52544;48.116;11.660;2023-01-29T15:01:18;96352.88;;;0.15;91.27
65800;BME280;52544;48.116;11.660;2023-01-29T15:03:50;96356.19;;;0.20;90.35
65800;BME280;52544;48.116;11.660;2023-01-29T15:06:20;96351.88;;;0.19;90.95
65800;BME280;52544;48.116;11.660;2023-01-29T15:09:03;96341.38;;;0.22;90.58
65800;BME280;52544;48.116;11.660;2023-01-29T15:11:47;96347.50;;;0.21;90.91
65800;BME280;52544;48.116;11.660;2023-01-29T15:19:21;96338.34;;;0.10;92.79